sensor_id;sensor_type;location;lat;lon;timestamp;P1;P2;P0
63915;PMS5003;50094;51.356;-0.196;2023-08-24T00:01:26;10;8;
63915;PMS5003;50094;51.356;-0.196;2023-08-24T00:03:54;8;8;
63915;PMS5003;50094;51.356;-0.196;2023-08-24T00:06:21;8;7;
63915;PMS5003;50094;51.356;-0.196;2023-08-24T00:08:49;9;7;
63915;PMS5003;50094;51.356;-0.196;2023-08-24T00:11:17;9;9;
63915;PMS5003;50094;51.356;-0.196;2023-08-24T00:13:44;6;6;
63915;PMS5003;50094;51.356;-0.196;2023-08-24T00:16:12;8;8;
63915;PMS5003;50094;51.356;-0.196;2023-08-24T00:18:39;8;8;
63915;PMS5003;50094;51.356;-0.196;2023-08-24T00:21:07;7;7;
63915;PMS5003;50094;51.356;-0.196;2023-08-24T00:23:35;6;6;
63915;PMS5003;50094;51.356;-0.196;2023-08-24T00:26:02;5;5;
63915;PMS5003;50094;51.356;-0.196;2023-08-24T00:28:30;8;8;
63915;PMS5003;50094;51.356;-0.196;2023-08-24T00:30:57;7;7;
63915;PMS5003;50094;51.356;-0.196;2023-08-24T00:33:25;6;5;
63915;PMS5003;50094;51.356;-0.196;2023-08-24T00:35:52;11;7;
63915;PMS5003;50094;51.356;-0.196;2023-08-24T00:38:20;9;9;
63915;PMS5003;50094;51.356;-0.196;2023-08-24T00:40:48;10;8;
63915;PMS5003;50094;51.356;-0.196;2023-08-24T00:43:15;10;8;
63915;PMS5003;50094;51.356;-0.196;2023-08-24T00:45:43;12;9;
63915;PMS5003;50094;51.356;-0.196;2023-08-24T00:48:10;7;6;
63915;PMS5003;50094;51.356;-0.196;2023-08-24T00:50:38;7;7;
63915;PMS5003;50094;51.356;-0.196;2023-08-24T00:53:06;7;7;
63915;PMS5003;50094;51.356;-0.196;2023-08-24T00:55:33;9;9;
63915;PMS5003;50094;51.356;-0.196;2023-08-24T00:58:01;10;8;
63915;PMS5003;50094;51.356;-0.196;2023-08-24T01:00:29;8;8;
63915;PMS5003;50094;51.356;-0.196;2023-08-24T01:02:57;13;8;
63915;PMS5003;50094;51.356;-0.196;2023-08-24T01:05:23;12;10;
63915;PMS5003;50094;51.356;-0.196;2023-08-24T01:07:51;6;6;
63915;PMS5003;50094;51.356;-0.196;2023-08-24T01:10:18;7;7;
63915;PMS5003;50094;51.356;-0.196;2023-08-24T01:12:52;7;7;
63915;PMS5003;50094;51.356;-0.196;2023-08-24T01:15:31;7;7;
63915;PMS5003;50094;51.356;-0.196;2023-08-24T01:18:04;7;6;
63915;PMS5003;50094;51.356;-0.196;2023-08-24T01:20:34;6;6;
63915;PMS5003;50094;51.356;-0.196;2023-08-24T01:23:06;7;6;
63915;PMS5003;50094;51.356;-0.196;2023-08-24T01:25:42;5;5;
63915;PMS5003;50094;51.356;-0.196;2023-08-24T01:28:14;6;6;
63915;PMS5003;50094;51.356;-0.196;2023-08-24T01:30:43;8;8;
63915;PMS5003;50094;51.356;-0.196;2023-08-24T01:33:11;6;6;
63915;PMS5003;50094;51.356;-0.196;2023-08-24T01:35:39;8;7;
63915;PMS5003;50094;51.356;-0.196;2023-08-24T01:38:07;8;6;
63915;PMS5003;50094;51.356;-0.196;2023-08-24T01:40:36;5;5;
63915;PMS5003;50094;51.356;-0.196;2023-08-24T01:43:11;8;8;
63915;PMS5003;50094;51.356;-0.196;2023-08-24T01:45:40;6;6;
63915;PMS5003;50094;51.356;-0.196;2023-08-24T01:48:10;5;5;
63915;PMS5003;50094;51.356;-0.196;2023-08-24T01:50:38;7;6;
63915;PMS5003;50094;51.356;-0.196;2023-08-24T01:53:07;6;6;
63915;PMS5003;50094;51.356;-0.196;2023-08-24T01:55:34;4;4;
63915;PMS5003;50094;51.356;-0.196;2023-08-24T01:58:02;7;7;
63915;PMS5003;50094;51.356;-0.196;2023-08-24T02:00:30;7;6;
63915;PMS5003;50094;51.356;-0.196;2023-08-24T02:02:57;6;6;
63915;PMS5003;50094;51.356;-0.196;2023-08-24T02:05:25;4;4;
63915;PMS5003;50094;51.356;-0.196;2023-08-24T02:07:52;7;7;
63915;PMS5003;50094;51.356;-0.196;2023-08-24T02:10:20;5;5;
63915;PMS5003;50094;51.356;-0.196;2023-08-24T02:12:47;5;5;
63915;PMS5003;50094;51.356;-0.196;2023-08-24T02:15:15;4;4;
63915;PMS5003;50094;51.356;-0.196;2023-08-24T02:17:42;7;7;
63915;PMS5003;50094;51.356;-0.196;2023-08-24T02:20:10;5;4;
63915;PMS5003;50094;51.356;-0.196;2023-08-24T02:22:37;5;3;
63915;PMS5003;50094;51.356;-0.196;2023-08-24T02:25:05;4;4;
63915;PMS5003;50094;51.356;-0.196;2023-08-24T02:27:34;7;5;
63915;PMS5003;50094;51.356;-0.196;2023-08-24T02:30:02;4;4;
63915;PMS5003;50094;51.356;-0.196;2023-08-24T02:32:30;4;3;
63915;PMS5003;50094;51.356;-0.196;2023-08-24T02:34:58;5;5;
63915;PMS5003;50094;51.356;-0.196;2023-08-24T02:37:25;4;3;
63915;PMS5003;50094;51.356;-0.196;2023-08-24T02:39:52;6;5;
63915;PMS5003;50094;51.356;-0.196;2023-08-24T02:42:19;5;5;
63915;PMS5003;50094;51.356;-0.196;2023-08-24T02:44:47;5;5;
63915;PMS5003;50094;51.356;-0.196;2023-08-24T02:47:15;5;5;
63915;PMS5003;50094;51.356;-0.196;2023-08-24T02:49:42;3;3;
63915;PMS5003;50094;51.356;-0.196;2023-08-24T02:52:10;8;5;
63915;PMS5003;50094;51.356;-0.196;2023-08-24T02:54:37;6;5;
63915;PMS5003;50094;51.356;-0.196;2023-08-24T02:57:05;5;5;
63915;PMS5003;50094;51.356;-0.196;2023-08-24T02:59:32;4;4;
63915;PMS5003;50094;51.356;-0.196;2023-08-24T03:02:00;7;5;
63915;PMS5003;50094;51.356;-0.196;2023-08-24T03:04:27;4;4;
63915;PMS5003;50094;51.356;-0.196;2023-08-24T03:06:55;6;6;
63915;PMS5003;50094;51.356;-0.196;2023-08-24T03:09:23;2;2;
63915;PMS5003;50094;51.356;-0.196;2023-08-24T03:11:50;5;5;
63915;PMS5003;50094;51.356;-0.196;2023-08-24T03:14:18;6;6;
63915;PMS5003;50094;51.356;-0.196;2023-08-24T03:16:45;8;8;
63915;PMS5003;50094;51.356;-0.196;2023-08-24T03:19:13;8;5;
63915;PMS5003;50094;51.356;-0.196;2023-08-24T03:21:40;5;4;
63915;PMS5003;50094;51.356;-0.196;2023-08-24T03:24:08;4;4;
63915;PMS5003;50094;51.356;-0.196;2023-08-24T03:26:35;4;4;
63915;PMS5003;50094;51.356;-0.196;2023-08-24T03:29:03;5;5;
63915;PMS5003;50094;51.356;-0.196;2023-08-24T03:31:30;5;5;
63915;PMS5003;50094;51.356;-0.196;2023-08-24T03:33:58;5;5;
63915;PMS5003;50094;51.356;-0.196;2023-08-24T03:36:25;4;4;
63915;PMS5003;50094;51.356;-0.196;2023-08-24T03:38:53;6;4;
63915;PMS5003;50094;51.356;-0.196;2023-08-24T03:41:20;5;5;
63915;PMS5003;50094;51.356;-0.196;2023-08-24T03:43:48;6;5;
63915;PMS5003;50094;51.356;-0.196;2023-08-24T03:46:15;5;4;
63915;PMS5003;50094;51.356;-0.196;2023-08-24T03:48:43;3;3;
63915;PMS5003;50094;51.356;-0.196;2023-08-24T03:51:11;7;4;
63915;PMS5003;50094;51.356;-0.196;2023-08-24T03:53:38;7;5;
63915;PMS5003;50094;51.356;-0.196;2023-08-24T03:56:06;4;4;
63915;PMS5003;50094;51.356;-0.196;2023-08-24T03:58:33;3;3;
63915;PMS5003;50094;51.356;-0.196;2023-08-24T04:01:01;5;3;
63915;PMS5003;50094;51.356;-0.196;2023-08-24T04:03:28;2;2;
63915;PMS5003;50094;51.356;-0.196;2023-08-24T04:05:56;3;3;
63915;PMS5003;50094;51.356;-0.196;2023-08-24T04:08:23;6;6;
63915;PMS5003;50094;51.356;-0.196;2023-08-24T04:10:51;6;4;
63915;PMS5003;50094;51.356;-0.196;2023-08-24T04:13:19;3;3;
63915;PMS5003;50094;51.356;-0.196;2023-08-24T04:15:46;4;2;
63915;PMS5003;50094;51.356;-0.196;2023-08-24T04:18:14;5;3;
63915;PMS5003;50094;51.356;-0.196;2023-08-24T04:20:41;4;4;
63915;PMS5003;50094;51.356;-0.196;2023-08-24T04:23:09;5;5;
63915;PMS5003;50094;51.356;-0.196;2023-08-24T04:25:39;4;4;
63915;PMS5003;50094;51.356;-0.196;2023-08-24T04:28:07;4;4;
63915;PMS5003;50094;51.356;-0.196;2023-08-24T04:30:34;6;6;
63915;PMS5003;50094;51.356;-0.196;2023-08-24T04:33:02;8;6;
63915;PMS5003;50094;51.356;-0.196;2023-08-24T04:35:29;6;5;
63915;PMS5003;50094;51.356;-0.196;2023-08-24T04:38:01;5;5;
63915;PMS5003;50094;51.356;-0.196;2023-08-24T04:40:28;3;3;
63915;PMS5003;50094;51.356;-0.196;2023-08-24T04:42:56;4;4;
63915;PMS5003;50094;51.356;-0.196;2023-08-24T04:45:24;6;4;
63915;PMS5003;50094;51.356;-0.196;2023-08-24T04:47:51;5;5;
63915;PMS5003;50094;51.356;-0.196;2023-08-24T04:50:19;5;4;
63915;PMS5003;50094;51.356;-0.196;2023-08-24T04:52:46;5;5;
63915;PMS5003;50094;51.356;-0.196;2023-08-24T04:55:14;4;4;
63915;PMS5003;50094;51.356;-0.196;2023-08-24T04:57:41;5;4;
63915;PMS5003;50094;51.356;-0.196;2023-08-24T05:00:09;4;4;
63915;PMS5003;50094;51.356;-0.196;2023-08-24T05:02:37;6;5;
63915;PMS5003;50094;51.356;-0.196;2023-08-24T05:05:05;4;4;
63915;PMS5003;50094;51.356;-0.196;2023-08-24T05:07:33;6;6;
63915;PMS5003;50094;51.356;-0.196;2023-08-24T05:10:01;6;6;
63915;PMS5003;50094;51.356;-0.196;2023-08-24T05:12:28;4;3;
63915;PMS5003;50094;51.356;-0.196;2023-08-24T05:14:56;7;7;
63915;PMS5003;50094;51.356;-0.196;2023-08-24T05:17:24;6;4;
63915;PMS5003;50094;51.356;-0.196;2023-08-24T05:19:51;5;4;
63915;PMS5003;50094;51.356;-0.196;2023-08-24T05:22:19;5;5;
63915;PMS5003;50094;51.356;-0.196;2023-08-24T05:24:46;8;5;
63915;PMS5003;50094;51.356;-0.196;2023-08-24T05:27:14;5;5;
63915;PMS5003;50094;51.356;-0.196;2023-08-24T05:29:41;7;6;
63915;PMS5003;50094;51.356;-0.196;2023-08-24T05:32:09;6;6;
63915;PMS5003;50094;51.356;-0.196;2023-08-24T05:34:37;4;4;
63915;PMS5003;50094;51.356;-0.196;2023-08-24T05:37:04;5;4;
63915;PMS5003;50094;51.356;-0.196;2023-08-24T05:39:32;5;4;
63915;PMS5003;50094;51.356;-0.196;2023-08-24T05:41:59;5;4;
63915;PMS5003;50094;51.356;-0.196;2023-08-24T05:44:27;5;5;
63915;PMS5003;50094;51.356;-0.196;2023-08-24T05:46:54;5;5;
63915;PMS5003;50094;51.356;-0.196;2023-08-24T05:49:22;5;4;
63915;PMS5003;50094;51.356;-0.196;2023-08-24T05:51:50;7;5;
63915;PMS5003;50094;51.356;-0.196;2023-08-24T05:54:18;8;7;
63915;PMS5003;50094;51.356;-0.196;2023-08-24T05:56:46;5;5;
63915;PMS5003;50094;51.356;-0.196;2023-08-24T05:59:13;8;7;
63915;PMS5003;50094;51.356;-0.196;2023-08-24T06:01:40;24;17;
63915;PMS5003;50094;51.356;-0.196;2023-08-24T06:04:08;9;7;
63915;PMS5003;50094;51.356;-0.196;2023-08-24T06:06:36;13;11;
63915;PMS5003;50094;51.356;-0.196;2023-08-24T06:09:03;39;31;
63915;PMS5003;50094;51.356;-0.196;2023-08-24T06:11:31;39;30;
63915;PMS5003;50094;51.356;-0.196;2023-08-24T06:13:59;38;25;
63915;PMS5003;50094;51.356;-0.196;2023-08-24T06:16:26;48;32;
63915;PMS5003;50094;51.356;-0.196;2023-08-24T06:18:54;40;30;
63915;PMS5003;50094;51.356;-0.196;2023-08-24T06:21:21;48;38;
63915;PMS5003;50094;51.356;-0.196;2023-08-24T06:23:49;35;27;
63915;PMS5003;50094;51.356;-0.196;2023-08-24T06:26:16;40;27;
63915;PMS5003;50094;51.356;-0.196;2023-08-24T06:28:45;34;24;
63915;PMS5003;50094;51.356;-0.196;2023-08-24T06:31:12;30;24;
63915;PMS5003;50094;51.356;-0.196;2023-08-24T06:33:39;28;19;
63915;PMS5003;50094;51.356;-0.196;2023-08-24T06:36:07;26;20;
63915;PMS5003;50094;51.356;-0.196;2023-08-24T06:38:33;25;23;
63915;PMS5003;50094;51.356;-0.196;2023-08-24T06:41:00;26;20;
63915;PMS5003;50094;51.356;-0.196;2023-08-24T06:43:28;26;20;
63915;PMS5003;50094;51.356;-0.196;2023-08-24T06:45:55;28;20;
63915;PMS5003;50094;51.356;-0.196;2023-08-24T06:48:23;24;16;
63915;PMS5003;50094;51.356;-0.196;2023-08-24T06:50:51;17;17;
63915;PMS5003;50094;51.356;-0.196;2023-08-24T06:53:18;20;15;
63915;PMS5003;50094;51.356;-0.196;2023-08-24T06:55:45;14;14;
63915;PMS5003;50094;51.356;-0.196;2023-08-24T06:58:12;32;18;
63915;PMS5003;50094;51.356;-0.196;2023-08-24T07:00:39;19;14;
63915;PMS5003;50094;51.356;-0.196;2023-08-24T07:03:07;21;15;
63915;PMS5003;50094;51.356;-0.196;2023-08-24T07:05:34;24;20;
63915;PMS5003;50094;51.356;-0.196;2023-08-24T07:08:02;16;16;
63915;PMS5003;50094;51.356;-0.196;2023-08-24T07:10:29;17;11;
63915;PMS5003;50094;51.356;-0.196;2023-08-24T07:12:56;20;11;
63915;PMS5003;50094;51.356;-0.196;2023-08-24T07:15:24;17;13;
63915;PMS5003;50094;51.356;-0.196;2023-08-24T07:17:51;23;13;
63915;PMS5003;50094;51.356;-0.196;2023-08-24T07:20:18;14;11;
63915;PMS5003;50094;51.356;-0.196;2023-08-24T07:22:46;17;13;
63915;PMS5003;50094;51.356;-0.196;2023-08-24T07:25:13;13;9;
63915;PMS5003;50094;51.356;-0.196;2023-08-24T07:27:40;16;14;
63915;PMS5003;50094;51.356;-0.196;2023-08-24T07:30:08;16;13;
63915;PMS5003;50094;51.356;-0.196;2023-08-24T07:32:36;16;14;
63915;PMS5003;50094;51.356;-0.196;2023-08-24T07:35:04;21;12;
63915;PMS5003;50094;51.356;-0.196;2023-08-24T07:37:32;16;12;
63915;PMS5003;50094;51.356;-0.196;2023-08-24T07:39:59;7;7;
63915;PMS5003;50094;51.356;-0.196;2023-08-24T07:42:27;13;11;
63915;PMS5003;50094;51.356;-0.196;2023-08-24T07:44:54;17;12;
63915;PMS5003;50094;51.356;-0.196;2023-08-24T07:47:22;14;9;
63915;PMS5003;50094;51.356;-0.196;2023-08-24T07:49:49;12;9;
63915;PMS5003;50094;51.356;-0.196;2023-08-24T07:52:16;15;12;
63915;PMS5003;50094;51.356;-0.196;2023-08-24T07:54:48;10;9;
63915;PMS5003;50094;51.356;-0.196;2023-08-24T07:57:15;13;10;
63915;PMS5003;50094;51.356;-0.196;2023-08-24T07:59:42;15;11;
63915;PMS5003;50094;51.356;-0.196;2023-08-24T08:02:09;12;9;
63915;PMS5003;50094;51.356;-0.196;2023-08-24T08:04:36;11;10;
63915;PMS5003;50094;51.356;-0.196;2023-08-24T08:07:03;12;10;
63915;PMS5003;50094;51.356;-0.196;2023-08-24T08:09:30;10;10;
63915;PMS5003;50094;51.356;-0.196;2023-08-24T08:11:57;10;8;
63915;PMS5003;50094;51.356;-0.196;2023-08-24T08:14:25;11;11;
63915;PMS5003;50094;51.356;-0.196;2023-08-24T08:16:53;11;10;
63915;PMS5003;50094;51.356;-0.196;2023-08-24T08:19:20;13;8;
63915;PMS5003;50094;51.356;-0.196;2023-08-24T08:21:49;11;8;
63915;PMS5003;50094;51.356;-0.196;2023-08-24T08:24:16;8;8;
63915;PMS5003;50094;51.356;-0.196;2023-08-24T08:26:44;8;7;
63915;PMS5003;50094;51.356;-0.196;2023-08-24T08:29:11;10;9;
63915;PMS5003;50094;51.356;-0.196;2023-08-24T08:31:40;11;9;
63915;PMS5003;50094;51.356;-0.196;2023-08-24T08:34:07;9;8;
63915;PMS5003;50094;51.356;-0.196;2023-08-24T08:36:34;11;11;
63915;PMS5003;50094;51.356;-0.196;2023-08-24T08:39:02;11;8;
63915;PMS5003;50094;51.356;-0.196;2023-08-24T08:41:30;7;7;
63915;PMS5003;50094;51.356;-0.196;2023-08-24T08:44:03;9;9;
63915;PMS5003;50094;51.356;-0.196;2023-08-24T08:46:32;12;12;
63915;PMS5003;50094;51.356;-0.196;2023-08-24T08:48:59;12;11;
63915;PMS5003;50094;51.356;-0.196;2023-08-24T08:51:27;14;9;
63915;PMS5003;50094;51.356;-0.196;2023-08-24T08:53:56;13;8;
63915;PMS5003;50094;51.356;-0.196;2023-08-24T08:56:28;8;8;
63915;PMS5003;50094;51.356;-0.196;2023-08-24T08:58:56;9;7;
63915;PMS5003;50094;51.356;-0.196;2023-08-24T09:01:25;10;8;
63915;PMS5003;50094;51.356;-0.196;2023-08-24T09:03:52;14;11;
63915;PMS5003;50094;51.356;-0.196;2023-08-24T09:06:21;10;10;
63915;PMS5003;50094;51.356;-0.196;2023-08-24T09:08:48;10;9;
63915;PMS5003;50094;51.356;-0.196;2023-08-24T09:11:16;9;8;
63915;PMS5003;50094;51.356;-0.196;2023-08-24T09:13:43;12;10;
63915;PMS5003;50094;51.356;-0.196;2023-08-24T09:16:11;11;9;
63915;PMS5003;50094;51.356;-0.196;2023-08-24T09:18:39;8;7;
63915;PMS5003;50094;51.356;-0.196;2023-08-24T09:21:08;11;9;
63915;PMS5003;50094;51.356;-0.196;2023-08-24T09:23:37;9;8;
63915;PMS5003;50094;51.356;-0.196;2023-08-24T09:26:10;9;7;
63915;PMS5003;50094;51.356;-0.196;2023-08-24T09:28:38;14;11;
63915;PMS5003;50094;51.356;-0.196;2023-08-24T09:31:11;8;8;
63915;PMS5003;50094;51.356;-0.196;2023-08-24T09:33:39;11;10;
63915;PMS5003;50094;51.356;-0.196;2023-08-24T09:36:09;7;5;
63915;PMS5003;50094;51.356;-0.196;2023-08-24T09:38:36;12;9;
63915;PMS5003;50094;51.356;-0.196;2023-08-24T09:41:04;9;7;
63915;PMS5003;50094;51.356;-0.196;2023-08-24T09:43:31;10;9;
63915;PMS5003;50094;51.356;-0.196;2023-08-24T09:45:58;7;7;
63915;PMS5003;50094;51.356;-0.196;2023-08-24T09:48:24;10;10;
63915;PMS5003;50094;51.356;-0.196;2023-08-24T09:50:52;9;9;
63915;PMS5003;50094;51.356;-0.196;2023-08-24T09:53:21;9;9;
63915;PMS5003;50094;51.356;-0.196;2023-08-24T09:55:53;13;9;
63915;PMS5003;50094;51.356;-0.196;2023-08-24T09:58:22;11;10;
63915;PMS5003;50094;51.356;-0.196;2023-08-24T10:00:50;10;10;
63915;PMS5003;50094;51.356;-0.196;2023-08-24T10:03:18;11;7;
63915;PMS5003;50094;51.356;-0.196;2023-08-24T10:05:47;9;9;
63915;PMS5003;50094;51.356;-0.196;2023-08-24T10:08:16;10;8;
63915;PMS5003;50094;51.356;-0.196;2023-08-24T10:10:47;9;8;
63915;PMS5003;50094;51.356;-0.196;2023-08-24T10:13:22;10;8;
63915;PMS5003;50094;51.356;-0.196;2023-08-24T10:15:53;7;7;
63915;PMS5003;50094;51.356;-0.196;2023-08-24T10:18:22;7;7;
63915;PMS5003;50094;51.356;-0.196;2023-08-24T10:20:50;7;7;
63915;PMS5003;50094;51.356;-0.196;2023-08-24T10:23:18;10;9;
63915;PMS5003;50094;51.356;-0.196;2023-08-24T10:25:46;10;8;
63915;PMS5003;50094;51.356;-0.196;2023-08-24T10:28:15;8;7;
63915;PMS5003;50094;51.356;-0.196;2023-08-24T10:30:43;6;6;
63915;PMS5003;50094;51.356;-0.196;2023-08-24T10:33:11;10;10;
63915;PMS5003;50094;51.356;-0.196;2023-08-24T10:35:44;7;7;
63915;PMS5003;50094;51.356;-0.196;2023-08-24T10:38:22;8;8;
63915;PMS5003;50094;51.356;-0.196;2023-08-24T10:40:50;6;6;
63915;PMS5003;50094;51.356;-0.196;2023-08-24T10:43:18;6;5;
63915;PMS5003;50094;51.356;-0.196;2023-08-24T10:46:01;8;7;
63915;PMS5003;50094;51.356;-0.196;2023-08-24T10:48:29;8;8;
63915;PMS5003;50094;51.356;-0.196;2023-08-24T10:51:30;9;9;
63915;PMS5003;50094;51.356;-0.196;2023-08-24T10:53:58;6;6;
63915;PMS5003;50094;51.356;-0.196;2023-08-24T10:56:30;11;8;
63915;PMS5003;50094;51.356;-0.196;2023-08-24T10:59:17;12;9;
63915;PMS5003;50094;51.356;-0.196;2023-08-24T11:01:54;7;7;
63915;PMS5003;50094;51.356;-0.196;2023-08-24T11:04:22;11;7;
63915;PMS5003;50094;51.356;-0.196;2023-08-24T11:06:50;9;7;
63915;PMS5003;50094;51.356;-0.196;2023-08-24T11:09:19;7;7;
63915;PMS5003;50094;51.356;-0.196;2023-08-24T11:12:02;7;7;
63915;PMS5003;50094;51.356;-0.196;2023-08-24T11:14:30;5;5;
63915;PMS5003;50094;51.356;-0.196;2023-08-24T11:16:59;9;8;
63915;PMS5003;50094;51.356;-0.196;2023-08-24T11:19:27;7;6;
63915;PMS5003;50094;51.356;-0.196;2023-08-24T11:21:54;6;6;
63915;PMS5003;50094;51.356;-0.196;2023-08-24T11:24:22;6;5;
63915;PMS5003;50094;51.356;-0.196;2023-08-24T11:26:50;8;7;
63915;PMS5003;50094;51.356;-0.196;2023-08-24T11:29:18;7;7;
63915;PMS5003;50094;51.356;-0.196;2023-08-24T11:31:45;8;7;
63915;PMS5003;50094;51.356;-0.196;2023-08-24T11:34:14;9;9;
63915;PMS5003;50094;51.356;-0.196;2023-08-24T11:36:42;7;6;
63915;PMS5003;50094;51.356;-0.196;2023-08-24T11:39:14;7;6;
63915;PMS5003;50094;51.356;-0.196;2023-08-24T11:41:42;9;5;
63915;PMS5003;50094;51.356;-0.196;2023-08-24T11:44:10;8;7;
63915;PMS5003;50094;51.356;-0.196;2023-08-24T11:46:37;9;7;
63915;PMS5003;50094;51.356;-0.196;2023-08-24T11:49:05;6;5;
63915;PMS5003;50094;51.356;-0.196;2023-08-24T11:51:32;8;7;
63915;PMS5003;50094;51.356;-0.196;2023-08-24T11:54:00;7;6;
63915;PMS5003;50094;51.356;-0.196;2023-08-24T11:56:28;9;7;
63915;PMS5003;50094;51.356;-0.196;2023-08-24T11:58:54;8;6;
63915;PMS5003;50094;51.356;-0.196;2023-08-24T12:01:22;8;7;
63915;PMS5003;50094;51.356;-0.196;2023-08-24T12:03:50;7;6;
63915;PMS5003;50094;51.356;-0.196;2023-08-24T12:06:17;7;7;
63915;PMS5003;50094;51.356;-0.196;2023-08-24T12:08:45;7;6;
63915;PMS5003;50094;51.356;-0.196;2023-08-24T12:11:14;11;10;
63915;PMS5003;50094;51.356;-0.196;2023-08-24T12:13:42;8;7;
63915;PMS5003;50094;51.356;-0.196;2023-08-24T12:16:10;5;5;
63915;PMS5003;50094;51.356;-0.196;2023-08-24T12:18:46;7;7;
63915;PMS5003;50094;51.356;-0.196;2023-08-24T12:21:14;5;5;
63915;PMS5003;50094;51.356;-0.196;2023-08-24T12:23:42;7;7;
63915;PMS5003;50094;51.356;-0.196;2023-08-24T12:26:17;7;7;
63915;PMS5003;50094;51.356;-0.196;2023-08-24T12:28:48;8;6;
63915;PMS5003;50094;51.356;-0.196;2023-08-24T12:31:16;4;4;
63915;PMS5003;50094;51.356;-0.196;2023-08-24T12:33:44;8;6;
63915;PMS5003;50094;51.356;-0.196;2023-08-24T12:36:12;7;7;
63915;PMS5003;50094;51.356;-0.196;2023-08-24T12:38:39;7;7;
63915;PMS5003;50094;51.356;-0.196;2023-08-24T12:41:06;8;8;
63915;PMS5003;50094;51.356;-0.196;2023-08-24T12:43:34;9;6;
63915;PMS5003;50094;51.356;-0.196;2023-08-24T12:46:01;9;8;
63915;PMS5003;50094;51.356;-0.196;2023-08-24T12:54:49;5;5;
63915;PMS5003;50094;51.356;-0.196;2023-08-24T12:57:17;6;6;
63915;PMS5003;50094;51.356;-0.196;2023-08-24T12:59:43;8;8;
63915;PMS5003;50094;51.356;-0.196;2023-08-24T13:02:11;6;6;
63915;PMS5003;50094;51.356;-0.196;2023-08-24T13:04:39;11;7;
63915;PMS5003;50094;51.356;-0.196;2023-08-24T13:07:06;5;5;
63915;PMS5003;50094;51.356;-0.196;2023-08-24T13:09:34;9;9;
63915;PMS5003;50094;51.356;-0.196;2023-08-24T13:12:01;11;8;
63915;PMS5003;50094;51.356;-0.196;2023-08-24T13:14:28;13;11;
63915;PMS5003;50094;51.356;-0.196;2023-08-24T13:16:55;7;7;
63915;PMS5003;50094;51.356;-0.196;2023-08-24T13:19:22;5;5;
63915;PMS5003;50094;51.356;-0.196;2023-08-24T13:21:49;13;8;
63915;PMS5003;50094;51.356;-0.196;2023-08-24T13:24:16;8;8;
63915;PMS5003;50094;51.356;-0.196;2023-08-24T13:26:43;9;7;
63915;PMS5003;50094;51.356;-0.196;2023-08-24T13:29:11;6;6;
63915;PMS5003;50094;51.356;-0.196;2023-08-24T13:31:38;10;9;
63915;PMS5003;50094;51.356;-0.196;2023-08-24T13:34:06;9;8;
63915;PMS5003;50094;51.356;-0.196;2023-08-24T13:36:34;8;7;
63915;PMS5003;50094;51.356;-0.196;2023-08-24T13:39:01;11;8;
63915;PMS5003;50094;51.356;-0.196;2023-08-24T13:41:29;6;6;
63915;PMS5003;50094;51.356;-0.196;2023-08-24T13:43:56;11;9;
63915;PMS5003;50094;51.356;-0.196;2023-08-24T13:46:24;10;7;
63915;PMS5003;50094;51.356;-0.196;2023-08-24T13:48:51;11;7;
63915;PMS5003;50094;51.356;-0.196;2023-08-24T13:51:18;7;5;
63915;PMS5003;50094;51.356;-0.196;2023-08-24T13:53:45;6;6;
63915;PMS5003;50094;51.356;-0.196;2023-08-24T13:56:14;9;7;
63915;PMS5003;50094;51.356;-0.196;2023-08-24T13:58:41;6;6;
63915;PMS5003;50094;51.356;-0.196;2023-08-24T14:01:09;6;6;
63915;PMS5003;50094;51.356;-0.196;2023-08-24T14:03:36;8;7;
63915;PMS5003;50094;51.356;-0.196;2023-08-24T14:06:04;6;6;
63915;PMS5003;50094;51.356;-0.196;2023-08-24T14:08:31;6;5;
63915;PMS5003;50094;51.356;-0.196;2023-08-24T14:10:59;7;7;
63915;PMS5003;50094;51.356;-0.196;2023-08-24T14:13:27;5;5;
63915;PMS5003;50094;51.356;-0.196;2023-08-24T14:15:53;6;6;
63915;PMS5003;50094;51.356;-0.196;2023-08-24T14:18:21;6;6;
63915;PMS5003;50094;51.356;-0.196;2023-08-24T14:20:49;5;5;
63915;PMS5003;50094;51.356;-0.196;2023-08-24T14:23:17;7;7;
63915;PMS5003;50094;51.356;-0.196;2023-08-24T14:25:45;5;5;
63915;PMS5003;50094;51.356;-0.196;2023-08-24T14:28:13;8;5;
63915;PMS5003;50094;51.356;-0.196;2023-08-24T14:30:40;7;6;
63915;PMS5003;50094;51.356;-0.196;2023-08-24T14:33:07;7;7;
63915;PMS5003;50094;51.356;-0.196;2023-08-24T14:35:35;7;7;
63915;PMS5003;50094;51.356;-0.196;2023-08-24T14:38:02;9;8;
63915;PMS5003;50094;51.356;-0.196;2023-08-24T14:40:30;4;4;
63915;PMS5003;50094;51.356;-0.196;2023-08-24T14:42:57;7;7;
63915;PMS5003;50094;51.356;-0.196;2023-08-24T14:45:25;6;6;
63915;PMS5003;50094;51.356;-0.196;2023-08-24T14:47:53;9;9;
63915;PMS5003;50094;51.356;-0.196;2023-08-24T14:50:20;5;5;
63915;PMS5003;50094;51.356;-0.196;2023-08-24T14:52:48;6;6;
63915;PMS5003;50094;51.356;-0.196;2023-08-24T14:55:15;4;4;
63915;PMS5003;50094;51.356;-0.196;2023-08-24T14:57:43;5;5;
63915;PMS5003;50094;51.356;-0.196;2023-08-24T15:00:11;8;6;
63915;PMS5003;50094;51.356;-0.196;2023-08-24T15:02:39;7;7;
63915;PMS5003;50094;51.356;-0.196;2023-08-24T15:05:07;7;6;
63915;PMS5003;50094;51.356;-0.196;2023-08-24T15:07:34;9;7;
63915;PMS5003;50094;51.356;-0.196;2023-08-24T15:10:02;10;8;
63915;PMS5003;50094;51.356;-0.196;2023-08-24T15:12:29;7;7;
63915;PMS5003;50094;51.356;-0.196;2023-08-24T15:14:57;6;6;
63915;PMS5003;50094;51.356;-0.196;2023-08-24T15:17:25;10;7;
63915;PMS5003;50094;51.356;-0.196;2023-08-24T15:19:54;7;5;
63915;PMS5003;50094;51.356;-0.196;2023-08-24T15:22:21;10;7;
63915;PMS5003;50094;51.356;-0.196;2023-08-24T15:24:49;5;5;
63915;PMS5003;50094;51.356;-0.196;2023-08-24T15:27:17;8;8;
63915;PMS5003;50094;51.356;-0.196;2023-08-24T15:29:43;11;8;
63915;PMS5003;50094;51.356;-0.196;2023-08-24T15:32:11;6;5;
63915;PMS5003;50094;51.356;-0.196;2023-08-24T15:34:39;8;7;
63915;PMS5003;50094;51.356;-0.196;2023-08-24T15:37:06;9;9;
63915;PMS5003;50094;51.356;-0.196;2023-08-24T15:39:35;9;9;
63915;PMS5003;50094;51.356;-0.196;2023-08-24T15:42:03;8;7;
63915;PMS5003;50094;51.356;-0.196;2023-08-24T15:44:31;6;6;
63915;PMS5003;50094;51.356;-0.196;2023-08-24T15:46:58;6;6;
63915;PMS5003;50094;51.356;-0.196;2023-08-24T15:49:26;9;7;
63915;PMS5003;50094;51.356;-0.196;2023-08-24T15:51:54;7;6;
63915;PMS5003;50094;51.356;-0.196;2023-08-24T15:54:21;7;5;
63915;PMS5003;50094;51.356;-0.196;2023-08-24T15:56:49;6;6;
63915;PMS5003;50094;51.356;-0.196;2023-08-24T15:59:17;5;5;
63915;PMS5003;50094;51.356;-0.196;2023-08-24T16:01:45;8;8;
63915;PMS5003;50094;51.356;-0.196;2023-08-24T16:04:13;6;6;
63915;PMS5003;50094;51.356;-0.196;2023-08-24T16:06:40;6;6;
63915;PMS5003;50094;51.356;-0.196;2023-08-24T16:09:09;8;7;
63915;PMS5003;50094;51.356;-0.196;2023-08-24T16:11:36;8;6;
63915;PMS5003;50094;51.356;-0.196;2023-08-24T16:14:04;6;6;
63915;PMS5003;50094;51.356;-0.196;2023-08-24T16:16:32;6;6;
63915;PMS5003;50094;51.356;-0.196;2023-08-24T16:18:59;8;8;
63915;PMS5003;50094;51.356;-0.196;2023-08-24T16:21:26;9;9;
63915;PMS5003;50094;51.356;-0.196;2023-08-24T16:23:54;8;6;
63915;PMS5003;50094;51.356;-0.196;2023-08-24T16:26:23;8;6;
63915;PMS5003;50094;51.356;-0.196;2023-08-24T16:28:50;6;6;
63915;PMS5003;50094;51.356;-0.196;2023-08-24T16:31:18;8;8;
63915;PMS5003;50094;51.356;-0.196;2023-08-24T16:33:45;7;6;
63915;PMS5003;50094;51.356;-0.196;2023-08-24T16:36:13;7;6;
63915;PMS5003;50094;51.356;-0.196;2023-08-24T16:38:41;6;6;